sensor_id;sensor_type;location;lat;lon;timestamp;temperature;humidity
78297;DHT22;67555;47.660;19.622;2023-12-04T00:00:48;-2.60;76.60
78297;DHT22;67555;47.660;19.622;2023-12-04T00:03:13;-2.60;76.50
78297;DHT22;67555;47.660;19.622;2023-12-04T00:05:42;-2.50;76.30
78297;DHT22;67555;47.660;19.622;2023-12-04T00:08:08;-2.40;76.10
78297;DHT22;67555;47.660;19.622;2023-12-04T00:10:34;-2.40;76.00
78297;DHT22;67555;47.660;19.622;2023-12-04T00:13:00;-2.40;75.90
78297;DHT22;67555;47.660;19.622;2023-12-04T00:15:25;-2.50;75.80
78297;DHT22;67555;47.660;19.622;2023-12-04T00:17:51;-2.80;76.10
78297;DHT22;67555;47.660;19.622;2023-12-04T00:20:16;-3.00;76.70
78297;DHT22;67555;47.660;19.622;2023-12-04T00:22:42;-3.00;77.00
78297;DHT22;67555;47.660;19.622;2023-12-04T00:25:08;-3.10;77.20
78297;DHT22;67555;47.660;19.622;2023-12-04T00:27:34;-3.20;77.50
78297;DHT22;67555;47.660;19.622;2023-12-04T00:29:59;-3.30;78.00
78297;DHT22;67555;47.660;19.622;2023-12-04T00:32:25;-3.50;78.30
78297;DHT22;67555;47.660;19.622;2023-12-04T00:34:51;-3.50;78.60
78297;DHT22;67555;47.660;19.622;2023-12-04T00:37:16;-3.40;78.50
78297;DHT22;67555;47.660;19.622;2023-12-04T00:39:42;-3.40;78.60
78297;DHT22;67555;47.660;19.622;2023-12-04T00:42:08;-3.40;78.50
78297;DHT22;67555;47.660;19.622;2023-12-04T00:44:33;-3.30;78.40
78297;DHT22;67555;47.660;19.622;2023-12-04T00:46:59;-3.30;78.20
78297;DHT22;67555;47.660;19.622;2023-12-04T00:49:25;-3.30;78.10
78297;DHT22;67555;47.660;19.622;2023-12-04T00:51:51;-3.40;78.00
78297;DHT22;67555;47.660;19.622;2023-12-04T00:54:16;-3.40;78.20
78297;DHT22;67555;47.660;19.622;2023-12-04T00:56:42;-3.50;78.30
78297;DHT22;67555;47.660;19.622;2023-12-04T00:59:09;-3.50;78.30
78297;DHT22;67555;47.660;19.622;2023-12-04T01:01:38;-3.50;78.30
78297;DHT22;67555;47.660;19.622;2023-12-04T01:04:04;-3.60;78.40
78297;DHT22;67555;47.660;19.622;2023-12-04T01:06:29;-3.60;78.50
78297;DHT22;67555;47.660;19.622;2023-12-04T01:08:56;-3.70;78.70
78297;DHT22;67555;47.660;19.622;2023-12-04T01:11:22;-3.70;78.90
78297;DHT22;67555;47.660;19.622;2023-12-04T01:13:49;-3.70;78.80
78297;DHT22;67555;47.660;19.622;2023-12-04T01:16:15;-3.70;78.90
78297;DHT22;67555;47.660;19.622;2023-12-04T01:18:43;-3.70;78.90
78297;DHT22;67555;47.660;19.622;2023-12-04T01:21:09;-3.70;78.90
78297;DHT22;67555;47.660;19.622;2023-12-04T01:23:37;-3.70;78.80
78297;DHT22;67555;47.660;19.622;2023-12-04T01:26:04;-3.70;78.70
78297;DHT22;67555;47.660;19.622;2023-12-04T01:28:30;-3.80;78.70
78297;DHT22;67555;47.660;19.622;2023-12-04T01:30:55;-3.80;78.70
78297;DHT22;67555;47.660;19.622;2023-12-04T01:33:21;-3.90;78.70
78297;DHT22;67555;47.660;19.622;2023-12-04T01:35:47;-4.00;78.90
78297;DHT22;67555;47.660;19.622;2023-12-04T01:38:13;-4.00;79.00
78297;DHT22;67555;47.660;19.622;2023-12-04T01:40:38;-4.10;79.20
78297;DHT22;67555;47.660;19.622;2023-12-04T01:43:04;-4.10;79.30
78297;DHT22;67555;47.660;19.622;2023-12-04T01:45:31;-4.10;79.20
78297;DHT22;67555;47.660;19.622;2023-12-04T01:47:57;-4.10;79.20
78297;DHT22;67555;47.660;19.622;2023-12-04T01:50:24;-4.00;79.20
78297;DHT22;67555;47.660;19.622;2023-12-04T01:52:51;-4.10;79.10
78297;DHT22;67555;47.660;19.622;2023-12-04T01:55:18;-4.10;79.10
78297;DHT22;67555;47.660;19.622;2023-12-04T01:57:45;-4.20;79.30
78297;DHT22;67555;47.660;19.622;2023-12-04T02:00:12;-4.20;79.40
78297;DHT22;67555;47.660;19.622;2023-12-04T02:02:41;-4.20;79.50
78297;DHT22;67555;47.660;19.622;2023-12-04T02:05:11;-4.10;79.30
78297;DHT22;67555;47.660;19.622;2023-12-04T02:07:40;-4.20;79.30
78297;DHT22;67555;47.660;19.622;2023-12-04T02:10:06;-4.20;79.30
78297;DHT22;67555;47.660;19.622;2023-12-04T02:12:32;-4.20;79.30
78297;DHT22;67555;47.660;19.622;2023-12-04T02:14:58;-4.20;79.30
78297;DHT22;67555;47.660;19.622;2023-12-04T02:17:26;-4.20;79.30
78297;DHT22;67555;47.660;19.622;2023-12-04T02:19:52;-4.20;79.30
78297;DHT22;67555;47.660;19.622;2023-12-04T02:22:18;-4.30;79.40
78297;DHT22;67555;47.660;19.622;2023-12-04T02:24:45;-4.30;79.50
78297;DHT22;67555;47.660;19.622;2023-12-04T02:27:26;-4.30;79.40
78297;DHT22;67555;47.660;19.622;2023-12-04T02:29:58;-4.40;79.50
78297;DHT22;67555;47.660;19.622;2023-12-04T02:32:25;-4.40;79.50
78297;DHT22;67555;47.660;19.622;2023-12-04T02:34:54;-4.20;79.40
78297;DHT22;67555;47.660;19.622;2023-12-04T02:37:21;-4.10;78.90
78297;DHT22;67555;47.660;19.622;2023-12-04T02:39:48;-4.10;78.40
78297;DHT22;67555;47.660;19.622;2023-12-04T02:42:18;-4.20;78.40
78297;DHT22;67555;47.660;19.622;2023-12-04T02:44:44;-4.30;78.50
78297;DHT22;67555;47.660;19.622;2023-12-04T02:47:11;-4.30;78.70
78297;DHT22;67555;47.660;19.622;2023-12-04T02:49:37;-4.20;78.60
78297;DHT22;67555;47.660;19.622;2023-12-04T02:52:02;-4.30;78.50
78297;DHT22;67555;47.660;19.622;2023-12-04T02:54:29;-4.30;78.30
78297;DHT22;67555;47.660;19.622;2023-12-04T02:56:54;-4.30;78.30
78297;DHT22;67555;47.660;19.622;2023-12-04T02:59:20;-4.40;78.30
78297;DHT22;67555;47.660;19.622;2023-12-04T03:01:46;-4.40;78.60
78297;DHT22;67555;47.660;19.622;2023-12-04T03:04:11;-4.30;78.60
78297;DHT22;67555;47.660;19.622;2023-12-04T03:06:37;-4.20;78.50
78297;DHT22;67555;47.660;19.622;2023-12-04T03:09:04;-4.10;78.30
78297;DHT22;67555;47.660;19.622;2023-12-04T03:11:31;-4.10;78.10
78297;DHT22;67555;47.660;19.622;2023-12-04T03:13:59;-4.00;78.00
78297;DHT22;67555;47.660;19.622;2023-12-04T03:16:25;-4.00;77.70
78297;DHT22;67555;47.660;19.622;2023-12-04T03:18:50;-4.00;77.60
78297;DHT22;67555;47.660;19.622;2023-12-04T03:21:16;-4.00;77.80
78297;DHT22;67555;47.660;19.622;2023-12-04T03:23:42;-3.80;77.80
78297;DHT22;67555;47.660;19.622;2023-12-04T03:26:09;-3.70;77.40
78297;DHT22;67555;47.660;19.622;2023-12-04T03:28:34;-3.60;77.00
78297;DHT22;67555;47.660;19.622;2023-12-04T03:31:00;-3.50;76.60
78297;DHT22;67555;47.660;19.622;2023-12-04T03:33:27;-3.40;76.10
78297;DHT22;67555;47.660;19.622;2023-12-04T03:35:53;-3.40;76.00
78297;DHT22;67555;47.660;19.622;2023-12-04T03:38:19;-3.50;75.90
78297;DHT22;67555;47.660;19.622;2023-12-04T03:40:44;-3.40;76.10
78297;DHT22;67555;47.660;19.622;2023-12-04T03:43:10;-3.40;76.20
78297;DHT22;67555;47.660;19.622;2023-12-04T03:45:36;-3.40;76.10
78297;DHT22;67555;47.660;19.622;2023-12-04T03:48:01;-3.30;75.80
78297;DHT22;67555;47.660;19.622;2023-12-04T03:50:27;-3.40;75.90
78297;DHT22;67555;47.660;19.622;2023-12-04T03:52:53;-3.40;75.90
78297;DHT22;67555;47.660;19.622;2023-12-04T03:55:18;-3.50;76.00
78297;DHT22;67555;47.660;19.622;2023-12-04T03:57:45;-3.60;76.00
78297;DHT22;67555;47.660;19.622;2023-12-04T04:00:11;-3.60;76.10
78297;DHT22;67555;47.660;19.622;2023-12-04T04:02:43;-3.80;76.40
78297;DHT22;67555;47.660;19.622;2023-12-04T04:05:09;-3.90;76.70
78297;DHT22;67555;47.660;19.622;2023-12-04T04:07:35;-4.00;76.90
78297;DHT22;67555;47.660;19.622;2023-12-04T04:10:00;-4.00;77.10
78297;DHT22;67555;47.660;19.622;2023-12-04T04:12:30;-4.00;77.20
78297;DHT22;67555;47.660;19.622;2023-12-04T04:14:57;-4.00;77.10
78297;DHT22;67555;47.660;19.622;2023-12-04T04:17:22;-3.80;76.70
78297;DHT22;67555;47.660;19.622;2023-12-04T04:19:52;-3.60;76.30
78297;DHT22;67555;47.660;19.622;2023-12-04T04:22:18;-3.60;75.80
78297;DHT22;67555;47.660;19.622;2023-12-04T04:24:43;-3.60;75.70
78297;DHT22;67555;47.660;19.622;2023-12-04T04:27:09;-3.60;75.40
78297;DHT22;67555;47.660;19.622;2023-12-04T04:29:35;-3.60;75.40
78297;DHT22;67555;47.660;19.622;2023-12-04T04:32:00;-3.60;75.40
78297;DHT22;67555;47.660;19.622;2023-12-04T04:34:26;-3.50;75.20
78297;DHT22;67555;47.660;19.622;2023-12-04T04:36:52;-3.50;75.20
78297;DHT22;67555;47.660;19.622;2023-12-04T04:39:17;-3.50;75.30
78297;DHT22;67555;47.660;19.622;2023-12-04T04:41:44;-3.50;75.40
78297;DHT22;67555;47.660;19.622;2023-12-04T04:44:10;-3.50;75.40
78297;DHT22;67555;47.660;19.622;2023-12-04T04:46:36;-3.50;75.60
78297;DHT22;67555;47.660;19.622;2023-12-04T04:49:03;-3.50;75.70
78297;DHT22;67555;47.660;19.622;2023-12-04T04:51:32;-3.60;76.00
78297;DHT22;67555;47.660;19.622;2023-12-04T04:53:59;-3.60;75.90
78297;DHT22;67555;47.660;19.622;2023-12-04T04:56:25;-3.60;76.30
78297;DHT22;67555;47.660;19.622;2023-12-04T04:58:51;-3.60;76.10
78297;DHT22;67555;47.660;19.622;2023-12-04T05:01:16;-3.60;76.00
78297;DHT22;67555;47.660;19.622;2023-12-04T05:03:42;-3.60;76.20
78297;DHT22;67555;47.660;19.622;2023-12-04T05:06:08;-3.70;76.30
78297;DHT22;67555;47.660;19.622;2023-12-04T05:08:34;-3.80;76.60
78297;DHT22;67555;47.660;19.622;2023-12-04T05:11:00;-3.80;76.70
78297;DHT22;67555;47.660;19.622;2023-12-04T05:13:26;-3.60;76.40
78297;DHT22;67555;47.660;19.622;2023-12-04T05:15:51;-3.60;76.00
78297;DHT22;67555;47.660;19.622;2023-12-04T05:18:17;-3.50;75.70
78297;DHT22;67555;47.660;19.622;2023-12-04T05:20:43;-3.40;75.30
78297;DHT22;67555;47.660;19.622;2023-12-04T05:23:08;-3.40;75.00
78297;DHT22;67555;47.660;19.622;2023-12-04T05:25:34;-3.40;74.70
78297;DHT22;67555;47.660;19.622;2023-12-04T05:28:00;-3.40;74.60
78297;DHT22;67555;47.660;19.622;2023-12-04T05:30:26;-3.40;74.60
78297;DHT22;67555;47.660;19.622;2023-12-04T05:32:51;-3.60;75.00
78297;DHT22;67555;47.660;19.622;2023-12-04T05:35:17;-3.60;75.30
78297;DHT22;67555;47.660;19.622;2023-12-04T05:37:43;-3.70;75.50
78297;DHT22;67555;47.660;19.622;2023-12-04T05:40:09;-3.60;75.40
78297;DHT22;67555;47.660;19.622;2023-12-04T05:42:36;-3.60;75.20
78297;DHT22;67555;47.660;19.622;2023-12-04T05:45:02;-3.60;74.80
78297;DHT22;67555;47.660;19.622;2023-12-04T05:47:28;-3.50;74.50
78297;DHT22;67555;47.660;19.622;2023-12-04T05:49:54;-3.50;74.30
78297;DHT22;67555;47.660;19.622;2023-12-04T05:52:20;-3.50;74.20
78297;DHT22;67555;47.660;19.622;2023-12-04T05:54:46;-3.50;74.10
78297;DHT22;67555;47.660;19.622;2023-12-04T05:57:11;-3.60;74.30
78297;DHT22;67555;47.660;19.622;2023-12-04T05:59:37;-3.50;74.30
78297;DHT22;67555;47.660;19.622;2023-12-04T06:02:03;-3.50;74.10
78297;DHT22;67555;47.660;19.622;2023-12-04T06:04:30;-3.50;74.00
78297;DHT22;67555;47.660;19.622;2023-12-04T06:06:55;-3.50;73.90
78297;DHT22;67555;47.660;19.622;2023-12-04T06:09:21;-3.50;74.00
78297;DHT22;67555;47.660;19.622;2023-12-04T06:11:47;-3.60;74.30
78297;DHT22;67555;47.660;19.622;2023-12-04T06:14:12;-3.70;74.70
78297;DHT22;67555;47.660;19.622;2023-12-04T06:16:38;-3.60;74.80
78297;DHT22;67555;47.660;19.622;2023-12-04T06:19:04;-3.60;74.60
78297;DHT22;67555;47.660;19.622;2023-12-04T06:21:30;-3.60;74.60
78297;DHT22;67555;47.660;19.622;2023-12-04T06:23:58;-3.60;74.60
78297;DHT22;67555;47.660;19.622;2023-12-04T06:26:24;-3.50;74.40
78297;DHT22;67555;47.660;19.622;2023-12-04T06:28:50;-3.50;74.00
78297;DHT22;67555;47.660;19.622;2023-12-04T06:31:16;-3.50;73.90
78297;DHT22;67555;47.660;19.622;2023-12-04T06:33:42;-3.40;73.70
78297;DHT22;67555;47.660;19.622;2023-12-04T06:36:09;-3.40;73.60
78297;DHT22;67555;47.660;19.622;2023-12-04T06:38:39;-3.40;73.60
78297;DHT22;67555;47.660;19.622;2023-12-04T06:41:05;-3.40;73.60
78297;DHT22;67555;47.660;19.622;2023-12-04T06:43:31;-3.40;73.70
78297;DHT22;67555;47.660;19.622;2023-12-04T06:45:58;-3.30;73.80
78297;DHT22;67555;47.660;19.622;2023-12-04T06:48:24;-3.20;73.80
78297;DHT22;67555;47.660;19.622;2023-12-04T06:50:50;-3.20;73.70
78297;DHT22;67555;47.660;19.622;2023-12-04T06:53:16;-3.20;73.90
78297;DHT22;67555;47.660;19.622;2023-12-04T06:55:41;-3.30;74.40
78297;DHT22;67555;47.660;19.622;2023-12-04T06:58:07;-3.30;74.70
78297;DHT22;67555;47.660;19.622;2023-12-04T07:00:33;-3.40;74.90
78297;DHT22;67555;47.660;19.622;2023-12-04T07:02:58;-3.30;75.10
78297;DHT22;67555;47.660;19.622;2023-12-04T07:05:24;-3.20;75.00
78297;DHT22;67555;47.660;19.622;2023-12-04T07:07:50;-3.10;74.80
78297;DHT22;67555;47.660;19.622;2023-12-04T07:10:15;-3.00;74.60
78297;DHT22;67555;47.660;19.622;2023-12-04T07:12:42;-2.80;74.20
78297;DHT22;67555;47.660;19.622;2023-12-04T07:15:09;-2.70;74.00
78297;DHT22;67555;47.660;19.622;2023-12-04T07:17:38;-2.70;73.80
78297;DHT22;67555;47.660;19.622;2023-12-04T07:20:05;-2.60;73.70
78297;DHT22;67555;47.660;19.622;2023-12-04T07:22:32;-2.50;73.60
78297;DHT22;67555;47.660;19.622;2023-12-04T07:24:58;-2.40;73.50
78297;DHT22;67555;47.660;19.622;2023-12-04T07:27:24;-2.30;73.20
78297;DHT22;67555;47.660;19.622;2023-12-04T07:29:50;-2.20;73.20
78297;DHT22;67555;47.660;19.622;2023-12-04T07:32:16;-2.20;73.00
78297;DHT22;67555;47.660;19.622;2023-12-04T07:34:43;-2.10;73.00
78297;DHT22;67555;47.660;19.622;2023-12-04T07:37:09;-2.00;73.00
78297;DHT22;67555;47.660;19.622;2023-12-04T07:39:35;-2.10;72.90
78297;DHT22;67555;47.660;19.622;2023-12-04T07:42:00;-2.10;73.30
78297;DHT22;67555;47.660;19.622;2023-12-04T07:44:26;-2.20;73.70
78297;DHT22;67555;47.660;19.622;2023-12-04T07:46:52;-2.10;73.90
78297;DHT22;67555;47.660;19.622;2023-12-04T07:49:18;-2.10;74.00
78297;DHT22;67555;47.660;19.622;2023-12-04T07:51:43;-2.10;74.10
78297;DHT22;67555;47.660;19.622;2023-12-04T07:54:09;-2.00;74.30
78297;DHT22;67555;47.660;19.622;2023-12-04T07:56:35;-2.00;74.40
78297;DHT22;67555;47.660;19.622;2023-12-04T07:59:01;-1.90;74.40
78297;DHT22;67555;47.660;19.622;2023-12-04T08:01:26;-1.70;74.30
78297;DHT22;67555;47.660;19.622;2023-12-04T08:03:52;-1.60;74.20
78297;DHT22;67555;47.660;19.622;2023-12-04T08:06:18;-1.50;74.10
78297;DHT22;67555;47.660;19.622;2023-12-04T08:08:44;-1.30;73.80
78297;DHT22;67555;47.660;19.622;2023-12-04T08:11:11;-1.10;73.60
78297;DHT22;67555;47.660;19.622;2023-12-04T08:13:40;-1.10;73.40
78297;DHT22;67555;47.660;19.622;2023-12-04T08:16:13;-1.10;73.20
78297;DHT22;67555;47.660;19.622;2023-12-04T08:18:39;-1.10;73.40
78297;DHT22;67555;47.660;19.622;2023-12-04T08:21:05;-1.30;73.60
78297;DHT22;67555;47.660;19.622;2023-12-04T08:23:31;-1.30;73.80
78297;DHT22;67555;47.660;19.622;2023-12-04T08:25:56;-1.30;74.10
78297;DHT22;67555;47.660;19.622;2023-12-04T08:28:23;-1.30;74.20
78297;DHT22;67555;47.660;19.622;2023-12-04T08:30:48;-1.40;74.40
78297;DHT22;67555;47.660;19.622;2023-12-04T08:33:14;-1.30;74.70
78297;DHT22;67555;47.660;19.622;2023-12-04T08:35:40;-1.30;74.60
78297;DHT22;67555;47.660;19.622;2023-12-04T08:38:06;-1.20;74.50
78297;DHT22;67555;47.660;19.622;2023-12-04T08:40:31;-1.10;74.60
78297;DHT22;67555;47.660;19.622;2023-12-04T08:42:57;-1.10;74.70
78297;DHT22;67555;47.660;19.622;2023-12-04T08:45:23;-1.10;74.80
78297;DHT22;67555;47.660;19.622;2023-12-04T08:47:49;-1.10;74.80
78297;DHT22;67555;47.660;19.622;2023-12-04T08:50:15;-1.10;74.90
78297;DHT22;67555;47.660;19.622;2023-12-04T08:52:41;-1.10;75.00
78297;DHT22;67555;47.660;19.622;2023-12-04T08:55:07;-1.10;75.00
78297;DHT22;67555;47.660;19.622;2023-12-04T08:57:33;-1.10;75.10
78297;DHT22;67555;47.660;19.622;2023-12-04T08:59:59;-1.00;75.00
78297;DHT22;67555;47.660;19.622;2023-12-04T09:02:24;-0.90;75.00
78297;DHT22;67555;47.660;19.622;2023-12-04T09:04:50;-0.70;74.70
78297;DHT22;67555;47.660;19.622;2023-12-04T09:07:16;-0.70;74.40
78297;DHT22;67555;47.660;19.622;2023-12-04T09:09:42;-0.60;74.30
78297;DHT22;67555;47.660;19.622;2023-12-04T09:12:09;-0.50;74.10
78297;DHT22;67555;47.660;19.622;2023-12-04T09:14:35;-0.40;73.90
78297;DHT22;67555;47.660;19.622;2023-12-04T09:17:01;-0.30;73.60
78297;DHT22;67555;47.660;19.622;2023-12-04T09:19:26;-0.30;73.50
78297;DHT22;67555;47.660;19.622;2023-12-04T09:21:52;-0.10;73.30
78297;DHT22;67555;47.660;19.622;2023-12-04T09:24:18;0.00;72.60
78297;DHT22;67555;47.660;19.622;2023-12-04T09:26:44;-0.10;72.60
78297;DHT22;67555;47.660;19.622;2023-12-04T09:29:11;-0.10;72.50
78297;DHT22;67555;47.660;19.622;2023-12-04T09:31:38;-0.10;72.70
78297;DHT22;67555;47.660;19.622;2023-12-04T09:34:03;-0.10;72.90
78297;DHT22;67555;47.660;19.622;2023-12-04T09:36:29;-0.10;72.90
78297;DHT22;67555;47.660;19.622;2023-12-04T09:38:55;0.00;72.90
78297;DHT22;67555;47.660;19.622;2023-12-04T09:41:21;0.00;72.70
78297;DHT22;67555;47.660;19.622;2023-12-04T09:43:47;0.00;72.70
78297;DHT22;67555;47.660;19.622;2023-12-04T09:46:13;0.00;72.50
78297;DHT22;67555;47.660;19.622;2023-12-04T09:48:41;0.10;72.50
78297;DHT22;67555;47.660;19.622;2023-12-04T09:51:09;0.20;72.40
78297;DHT22;67555;47.660;19.622;2023-12-04T09:53:35;0.30;72.30
78297;DHT22;67555;47.660;19.622;2023-12-04T09:56:03;0.50;72.10
78297;DHT22;67555;47.660;19.622;2023-12-04T09:58:29;0.60;71.70
78297;DHT22;67555;47.660;19.622;2023-12-04T10:00:56;0.60;71.50
78297;DHT22;67555;47.660;19.622;2023-12-04T10:03:24;0.60;71.40
78297;DHT22;67555;47.660;19.622;2023-12-04T10:05:50;0.50;71.20
78297;DHT22;67555;47.660;19.622;2023-12-04T10:08:16;0.60;71.50
78297;DHT22;67555;47.660;19.622;2023-12-04T10:10:45;0.80;71.40
78297;DHT22;67555;47.660;19.622;2023-12-04T10:13:11;1.00;71.20
78297;DHT22;67555;47.660;19.622;2023-12-04T10:15:50;1.20;70.80
78297;DHT22;67555;47.660;19.622;2023-12-04T10:18:30;1.50;70.40
78297;DHT22;67555;47.660;19.622;2023-12-04T10:20:58;1.70;69.90
78297;DHT22;67555;47.660;19.622;2023-12-04T10:23:37;1.90;69.50
78297;DHT22;67555;47.660;19.622;2023-12-04T10:26:03;2.20;69.10
78297;DHT22;67555;47.660;19.622;2023-12-04T10:28:29;2.30;68.90
78297;DHT22;67555;47.660;19.622;2023-12-04T10:30:56;2.40;68.50
78297;DHT22;67555;47.660;19.622;2023-12-04T10:33:24;2.50;68.30
78297;DHT22;67555;47.660;19.622;2023-12-04T10:35:51;2.60;68.20
78297;DHT22;67555;47.660;19.622;2023-12-04T10:38:18;2.70;67.90
78297;DHT22;67555;47.660;19.622;2023-12-04T10:40:44;2.80;67.80
78297;DHT22;67555;47.660;19.622;2023-12-04T10:43:17;2.90;67.70
78297;DHT22;67555;47.660;19.622;2023-12-04T10:45:45;3.00;67.50
78297;DHT22;67555;47.660;19.622;2023-12-04T10:48:12;3.10;67.20
78297;DHT22;67555;47.660;19.622;2023-12-04T10:50:40;3.10;66.90
78297;DHT22;67555;47.660;19.622;2023-12-04T10:53:07;3.20;66.50
78297;DHT22;67555;47.660;19.622;2023-12-04T10:55:33;3.20;66.20
78297;DHT22;67555;47.660;19.622;2023-12-04T10:58:06;3.20;66.10
78297;DHT22;67555;47.660;19.622;2023-12-04T11:00:34;3.20;65.80
78297;DHT22;67555;47.660;19.622;2023-12-04T11:03:07;3.10;65.40
78297;DHT22;67555;47.660;19.622;2023-12-04T11:05:40;3.10;65.30
78297;DHT22;67555;47.660;19.622;2023-12-04T11:08:08;3.10;65.00
78297;DHT22;67555;47.660;19.622;2023-12-04T11:10:41;3.10;64.80
78297;DHT22;67555;47.660;19.622;2023-12-04T11:13:20;3.10;64.70
78297;DHT22;67555;47.660;19.622;2023-12-04T11:15:48;3.10;64.70
78297;DHT22;67555;47.660;19.622;2023-12-04T11:18:21;3.30;64.50
78297;DHT22;67555;47.660;19.622;2023-12-04T11:20:55;3.30;64.30
78297;DHT22;67555;47.660;19.622;2023-12-04T11:23:23;3.30;64.20
78297;DHT22;67555;47.660;19.622;2023-12-04T11:25:50;3.30;64.20
78297;DHT22;67555;47.660;19.622;2023-12-04T11:28:16;3.40;64.10
78297;DHT22;67555;47.660;19.622;2023-12-04T11:30:42;3.40;63.90
78297;DHT22;67555;47.660;19.622;2023-12-04T11:33:09;3.30;63.80
78297;DHT22;67555;47.660;19.622;2023-12-04T11:35:38;3.30;63.70
78297;DHT22;67555;47.660;19.622;2023-12-04T11:38:05;3.30;63.70
78297;DHT22;67555;47.660;19.622;2023-12-04T11:40:32;3.30;63.60
78297;DHT22;67555;47.660;19.622;2023-12-04T11:42:58;3.10;63.50
78297;DHT22;67555;47.660;19.622;2023-12-04T11:45:24;3.10;63.60
78297;DHT22;67555;47.660;19.622;2023-12-04T11:50:20;3.10;63.20
78297;DHT22;67555;47.660;19.622;2023-12-04T11:52:47;3.10;62.90
78297;DHT22;67555;47.660;19.622;2023-12-04T11:55:25;3.00;62.90
78297;DHT22;67555;47.660;19.622;2023-12-04T11:57:53;3.00;63.00
78297;DHT22;67555;47.660;19.622;2023-12-04T12:00:21;3.00;62.70
78297;DHT22;67555;47.660;19.622;2023-12-04T12:05:20;3.10;62.60
78297;DHT22;67555;47.660;19.622;2023-12-04T12:07:46;3.30;62.50
78297;DHT22;67555;47.660;19.622;2023-12-04T12:10:15;3.50;62.20
78297;DHT22;67555;47.660;19.622;2023-12-04T12:12:41;3.60;62.20
78297;DHT22;67555;47.660;19.622;2023-12-04T12:15:11;3.90;61.90
78297;DHT22;67555;47.660;19.622;2023-12-04T12:17:41;4.10;61.60
78297;DHT22;67555;47.660;19.622;2023-12-04T12:20:07;4.30;61.20
78297;DHT22;67555;47.660;19.622;2023-12-04T12:22:34;4.50;60.80
78297;DHT22;67555;47.660;19.622;2023-12-04T12:25:03;4.70;60.30
78297;DHT22;67555;47.660;19.622;2023-12-04T12:27:30;4.90;60.00
78297;DHT22;67555;47.660;19.622;2023-12-04T12:29:56;5.00;59.70
78297;DHT22;67555;47.660;19.622;2023-12-04T12:32:22;5.20;59.50
78297;DHT22;67555;47.660;19.622;2023-12-04T12:34:47;5.30;59.30
78297;DHT22;67555;47.660;19.622;2023-12-04T12:37:13;5.50;59.00
78297;DHT22;67555;47.660;19.622;2023-12-04T12:39:40;5.50;58.70
78297;DHT22;67555;47.660;19.622;2023-12-04T12:42:06;5.60;58.60
78297;DHT22;67555;47.660;19.622;2023-12-04T12:44:39;5.80;58.50
78297;DHT22;67555;47.660;19.622;2023-12-04T12:47:06;5.90;58.20
78297;DHT22;67555;47.660;19.622;2023-12-04T12:49:33;6.00;58.00
78297;DHT22;67555;47.660;19.622;2023-12-04T12:52:01;6.00;57.80
78297;DHT22;67555;47.660;19.622;2023-12-04T12:54:27;6.00;57.70
78297;DHT22;67555;47.660;19.622;2023-12-04T12:56:53;6.10;57.50
78297;DHT22;67555;47.660;19.622;2023-12-04T12:59:19;6.10;57.50
78297;DHT22;67555;47.660;19.622;2023-12-04T13:01:44;6.20;57.20
78297;DHT22;67555;47.660;19.622;2023-12-04T13:04:14;6.30;57.00
78297;DHT22;67555;47.660;19.622;2023-12-04T13:06:41;6.40;56.70
78297;DHT22;67555;47.660;19.622;2023-12-04T13:09:06;6.50;56.40
78297;DHT22;67555;47.660;19.622;2023-12-04T13:11:33;6.40;56.20
78297;DHT22;67555;47.660;19.622;2023-12-04T13:13:59;6.30;56.20
78297;DHT22;67555;47.660;19.622;2023-12-04T13:16:24;6.10;56.40
78297;DHT22;67555;47.660;19.622;2023-12-04T13:18:50;6.00;56.50
78297;DHT22;67555;47.660;19.622;2023-12-04T13:21:16;6.00;56.60
78297;DHT22;67555;47.660;19.622;2023-12-04T13:23:42;6.00;56.50
78297;DHT22;67555;47.660;19.622;2023-12-04T13:26:08;5.90;56.40
78297;DHT22;67555;47.660;19.622;2023-12-04T13:28:37;5.80;56.50
78297;DHT22;67555;47.660;19.622;2023-12-04T13:31:04;5.70;56.60
78297;DHT22;67555;47.660;19.622;2023-12-04T13:33:30;5.60;56.60
78297;DHT22;67555;47.660;19.622;2023-12-04T13:35:57;5.50;56.80
78297;DHT22;67555;47.660;19.622;2023-12-04T13:38:23;5.30;56.90
78297;DHT22;67555;47.660;19.622;2023-12-04T13:40:49;5.20;57.10
78297;DHT22;67555;47.660;19.622;2023-12-04T13:43:28;5.00;57.30
78297;DHT22;67555;47.660;19.622;2023-12-04T13:46:12;5.00;57.50
78297;DHT22;67555;47.660;19.622;2023-12-04T13:48:38;4.80;57.80
78297;DHT22;67555;47.660;19.622;2023-12-04T13:51:11;4.70;58.00
78297;DHT22;67555;47.660;19.622;2023-12-04T13:53:38;4.50;58.30
78297;DHT22;67555;47.660;19.622;2023-12-04T13:56:10;4.40;58.70
78297;DHT22;67555;47.660;19.622;2023-12-04T13:58:44;4.30;59.00
78297;DHT22;67555;47.660;19.622;2023-12-04T14:01:11;4.10;59.30
78297;DHT22;67555;47.660;19.622;2023-12-04T14:03:41;4.00;59.50
78297;DHT22;67555;47.660;19.622;2023-12-04T14:06:07;3.90;59.70
78297;DHT22;67555;47.660;19.622;2023-12-04T14:08:33;3.90;59.70
78297;DHT22;67555;47.660;19.622;2023-12-04T14:10:59;3.70;59.80
78297;DHT22;67555;47.660;19.622;2023-12-04T14:13:26;3.60;60.00
78297;DHT22;67555;47.660;19.622;2023-12-04T14:15:52;3.60;60.30
78297;DHT22;67555;47.660;19.622;2023-12-04T14:18:18;3.50;60.50
78297;DHT22;67555;47.660;19.622;2023-12-04T14:20:44;3.50;60.70
78297;DHT22;67555;47.660;19.622;2023-12-04T14:23:10;3.40;60.70
78297;DHT22;67555;47.660;19.622;2023-12-04T14:25:36;3.30;60.90
78297;DHT22;67555;47.660;19.622;2023-12-04T14:28:01;3.30;61.00
78297;DHT22;67555;47.660;19.622;2023-12-04T14:30:28;3.30;61.10
78297;DHT22;67555;47.660;19.622;2023-12-04T14:32:53;3.20;61.30
78297;DHT22;67555;47.660;19.622;2023-12-04T14:35:23;3.10;61.50
78297;DHT22;67555;47.660;19.622;2023-12-04T14:37:49;3.10;61.60
78297;DHT22;67555;47.660;19.622;2023-12-04T14:40:16;3.00;61.70
78297;DHT22;67555;47.660;19.622;2023-12-04T14:42:43;3.00;61.90
78297;DHT22;67555;47.660;19.622;2023-12-04T14:45:09;2.90;62.00
78297;DHT22;67555;47.660;19.622;2023-12-04T14:47:41;2.90;62.20
78297;DHT22;67555;47.660;19.622;2023-12-04T14:50:07;2.80;62.30
78297;DHT22;67555;47.660;19.622;2023-12-04T14:52:33;2.80;62.40
78297;DHT22;67555;47.660;19.622;2023-12-04T14:55:00;2.70;62.50
78297;DHT22;67555;47.660;19.622;2023-12-04T14:57:34;2.70;62.70
78297;DHT22;67555;47.660;19.622;2023-12-04T15:00:07;2.50;62.90
78297;DHT22;67555;47.660;19.622;2023-12-04T15:02:52;2.50;63.10
78297;DHT22;67555;47.660;19.622;2023-12-04T15:05:39;2.40;63.30
78297;DHT22;67555;47.660;19.622;2023-12-04T15:08:31;2.40;63.50
78297;DHT22;67555;47.660;19.622;2023-12-04T15:11:05;2.30;63.70
78297;DHT22;67555;47.660;19.622;2023-12-04T15:13:50;2.20;63.80
78297;DHT22;67555;47.660;19.622;2023-12-04T15:16:39;2.20;63.90
78297;DHT22;67555;47.660;19.622;2023-12-04T15:19:12;2.20;64.00
78297;DHT22;67555;47.660;19.622;2023-12-04T15:21:56;2.10;64.10
78297;DHT22;67555;47.660;19.622;2023-12-04T15:24:23;2.10;64.30
78297;DHT22;67555;47.660;19.622;2023-12-04T15:26:50;2.10;64.30